Pagina principală
METAR-TAF:

METAR-TAF

Aeroporturi :

Beaumont, Texas, Statele Unite ale Americii

Latitudine: 30-04-13N, longitudine: 094-12-54W, elevație: 10 m

Observații meteo curente

Raportul a fost făcut în urmă cu 28 de minute, la 21:35 UTC
Vânt 8 kt de la Est, variabil între Nord-est și Est/Sud-est
Temperatură 34°C
Umiditate 47%
Presiune 1015 hPa
Nori împrăștiați la o înălțime de 5000 picior

METAR: KBMT 222135Z AUTO 09008KT 050V110 SCT050 34/21 A2997 RMK AO2 T03350210 PWINO

Ora: 16:03 (22:03 UTC)


TAF: lipsă

Observații și prognoze meteo pentru peste 4.000 de aeroporturi (rapoarte METAR și TAF).

Stațiile disponibile sunt reprezentate pe hartă prin puncte galbene și roșii.

Țineți indicatorul mouse-ului pe punctul dorit pentru a vedea denumirea stației.

Apoi, faceți clic pentru a vedea observațiile și prognozele meteorologice.

Pentru a schimba harta: Pentru mărire, faceți clic pe butoanele verzi cu cruce neagră; pentru micșorare, pe butonul verde cu o liniuță; pentru hărți învecinate, pe săgețile verzi.


METAR-TAF: